createdAt,value
2018-09-10T00:01:35.641Z,18.00
2018-09-10T00:04:19.258Z,18.00
2018-09-10T00:07:03.729Z,18.00
2018-09-10T00:09:47.314Z,17.90
2018-09-10T00:12:30.992Z,17.90
2018-09-10T00:15:14.600Z,17.90
2018-09-10T00:17:58.204Z,17.90
2018-09-10T00:20:41.840Z,17.80
2018-09-10T00:23:26.218Z,17.70
2018-09-10T00:26:09.810Z,17.70
2018-09-10T00:28:53.453Z,17.70
2018-09-10T00:31:37.061Z,17.70
2018-09-10T00:34:20.941Z,17.60
2018-09-10T00:37:04.570Z,17.60
2018-09-10T00:39:48.185Z,17.60
2018-09-10T00:42:31.775Z,17.50
2018-09-10T00:45:15.384Z,17.50
2018-09-10T00:47:58.963Z,17.50
2018-09-10T00:50:42.583Z,17.40
2018-09-10T00:53:26.177Z,17.40
2018-09-10T00:56:09.807Z,19.20
2018-09-10T00:58:53.393Z,17.30
2018-09-10T01:01:37.029Z,17.20
2018-09-10T01:04:20.690Z,17.10
2018-09-10T01:07:05.261Z,17.10
2018-09-10T01:09:48.865Z,17.00
2018-09-10T01:12:32.505Z,17.00
2018-09-10T01:15:16.079Z,17.00
2018-09-10T01:17:59.695Z,17.00
2018-09-10T01:20:44.095Z,17.10
2018-09-10T01:23:27.683Z,17.10
2018-09-10T01:26:11.294Z,17.10
2018-09-10T01:28:54.905Z,17.10
2018-09-10T01:31:38.504Z,17.00
2018-09-10T01:34:27.663Z,17.10
2018-09-10T01:37:11.289Z,17.10
2018-09-10T01:39:54.907Z,17.10
2018-09-10T01:42:38.502Z,17.10
2018-09-10T01:45:22.137Z,17.00
2018-09-10T01:48:05.786Z,17.10
2018-09-10T01:50:49.382Z,17.00
2018-09-10T01:53:32.999Z,17.00
2018-09-10T01:56:16.581Z,16.90
2018-09-10T01:59:00.200Z,16.90
2018-09-10T02:01:43.948Z,16.90
2018-09-10T02:04:27.558Z,16.90
2018-09-10T02:07:11.169Z,16.90
2018-09-10T02:09:54.753Z,16.90
2018-09-10T02:12:38.352Z,16.90
2018-09-10T02:15:21.957Z,16.90
2018-09-10T02:18:05.868Z,17.00
2018-09-10T02:20:49.452Z,17.00
2018-09-10T02:23:33.081Z,17.00
2018-09-10T02:26:16.627Z,17.00
2018-09-10T02:29:00.271Z,17.00
2018-09-10T02:31:43.912Z,16.90
2018-09-10T02:34:27.529Z,16.90
2018-09-10T02:37:11.115Z,16.90
2018-09-10T02:39:54.736Z,16.90
2018-09-10T02:42:38.328Z,16.90
2018-09-10T02:45:21.942Z,16.90
2018-09-10T02:48:05.519Z,16.90
2018-09-10T02:50:49.120Z,16.90
2018-09-10T02:53:32.741Z,17.00
2018-09-10T02:56:16.318Z,16.90
2018-09-10T02:59:00.115Z,16.90
2018-09-10T03:01:43.697Z,16.90
2018-09-10T03:04:27.312Z,16.90
2018-09-10T03:07:10.899Z,16.90
2018-09-10T03:09:54.483Z,16.70
2018-09-10T03:12:38.073Z,16.70
2018-09-10T03:15:22.078Z,16.70
2018-09-10T03:18:05.808Z,16.70
2018-09-10T03:20:49.332Z,16.60
2018-09-10T03:23:32.915Z,16.60
2018-09-10T03:26:16.523Z,16.70
2018-09-10T03:29:00.100Z,16.70
2018-09-10T03:31:43.697Z,16.70
2018-09-10T03:34:27.337Z,16.70
2018-09-10T03:37:10.966Z,16.70
2018-09-10T03:39:54.529Z,16.60
2018-09-10T03:42:38.138Z,16.60
2018-09-10T03:45:21.741Z,16.60
2018-09-10T03:48:05.318Z,16.60
2018-09-10T03:53:32.210Z,16.60
2018-09-10T03:56:15.827Z,16.60
2018-09-10T03:58:59.504Z,16.70
2018-09-10T04:04:32.938Z,16.80
2018-09-10T04:07:16.530Z,16.80
2018-09-10T04:10:00.155Z,16.80
2018-09-10T04:12:44.336Z,16.80
2018-09-10T04:15:27.943Z,16.80
2018-09-10T04:18:11.555Z,16.80
2018-09-10T04:20:55.393Z,16.80
2018-09-10T04:23:38.986Z,16.90
2018-09-10T04:26:22.582Z,17.30
2018-09-10T04:29:06.174Z,16.90
2018-09-10T04:31:49.768Z,16.80
2018-09-10T04:34:33.366Z,16.90
2018-09-10T04:37:16.970Z,16.90
2018-09-10T04:40:00.545Z,16.90
2018-09-10T04:45:27.466Z,17.00
2018-09-10T04:48:11.078Z,17.00
2018-09-10T04:50:54.660Z,17.00
2018-09-10T04:53:38.242Z,17.00
2018-09-10T04:56:21.813Z,17.00
2018-09-10T04:59:05.423Z,17.10
2018-09-10T05:01:49.050Z,17.10
2018-09-10T05:04:32.765Z,17.10
2018-09-10T05:07:16.258Z,17.10
2018-09-10T05:09:59.871Z,17.20
2018-09-10T05:12:43.468Z,17.20
2018-09-10T05:15:27.108Z,17.30
2018-09-10T05:18:10.752Z,17.30
2018-09-10T05:20:54.353Z,17.40
2018-09-10T05:23:37.889Z,17.40
2018-09-10T05:26:21.475Z,17.40
2018-09-10T05:29:05.060Z,17.50
2018-09-10T05:31:48.653Z,17.50
2018-09-10T05:34:32.275Z,17.60
2018-09-10T05:37:15.848Z,17.60
2018-09-10T05:39:59.453Z,17.60
2018-09-10T05:42:43.103Z,17.60
2018-09-10T05:45:26.700Z,17.70
2018-09-10T05:48:10.387Z,17.70
2018-09-10T05:50:54.024Z,17.70
2018-09-10T05:53:37.641Z,17.80
2018-09-10T05:56:21.203Z,17.80
2018-09-10T05:59:04.824Z,17.80
2018-09-10T06:01:48.424Z,17.80
2018-09-10T06:04:32.019Z,17.80
2018-09-10T06:07:15.607Z,17.80
2018-09-10T06:09:59.219Z,17.80
2018-09-10T06:12:42.798Z,17.90
2018-09-10T06:15:26.395Z,17.80
2018-09-10T06:18:09.996Z,17.90
2018-09-10T06:20:53.584Z,17.90
2018-09-10T06:23:37.152Z,18.00
2018-09-10T06:26:20.726Z,18.10
2018-09-10T06:29:04.342Z,18.20
2018-09-10T06:31:47.930Z,18.20
2018-09-10T06:34:31.511Z,18.30
2018-09-10T06:37:15.127Z,18.40
2018-09-10T06:39:58.640Z,18.40
2018-09-10T06:42:43.429Z,18.50
2018-09-10T06:45:27.030Z,18.60
2018-09-10T06:48:10.592Z,18.70
2018-09-10T06:50:54.175Z,18.90
2018-09-10T06:53:37.939Z,19.10
2018-09-10T06:56:21.466Z,19.20
2018-09-10T06:59:05.162Z,19.40
2018-09-10T07:01:48.728Z,19.70
2018-09-10T07:04:32.306Z,19.90
2018-09-10T07:07:15.885Z,20.00
2018-09-10T07:10:00.166Z,20.10
2018-09-10T07:12:43.856Z,20.10
2018-09-10T07:15:27.387Z,20.10
2018-09-10T07:18:11.010Z,20.00
2018-09-10T07:20:54.667Z,19.80
2018-09-10T07:23:38.266Z,19.70
2018-09-10T07:26:21.885Z,19.60
2018-09-10T07:29:05.506Z,19.40
2018-09-10T07:31:50.010Z,19.30
2018-09-10T07:34:33.667Z,19.20
2018-09-10T07:37:17.186Z,19.10
2018-09-10T07:40:00.886Z,19.10
2018-09-10T07:42:44.520Z,19.10
2018-09-10T07:45:28.090Z,19.20
2018-09-10T07:48:11.721Z,19.30
2018-09-10T07:50:55.318Z,19.40
2018-09-10T07:53:40.160Z,19.60
2018-09-10T07:56:24.508Z,19.80
2018-09-10T07:59:08.113Z,19.80
2018-09-10T08:01:51.689Z,19.80
2018-09-10T08:04:35.288Z,19.80
2018-09-10T08:07:18.896Z,19.90
2018-09-10T08:10:02.509Z,19.90
2018-09-10T08:12:46.125Z,19.90
2018-09-10T08:15:29.728Z,20.00
2018-09-10T08:18:13.292Z,20.10
2018-09-10T08:20:56.901Z,20.20
2018-09-10T08:23:40.500Z,20.60
2018-09-10T08:26:24.114Z,21.10
2018-09-10T08:29:07.720Z,22.10
2018-09-10T08:31:51.327Z,23.40
2018-09-10T08:34:34.979Z,24.30
2018-09-10T08:37:18.608Z,24.40
2018-09-10T08:40:02.216Z,24.10
2018-09-10T08:42:45.881Z,23.60
2018-09-10T08:45:29.410Z,23.50
2018-09-10T08:48:13.079Z,23.40
2018-09-10T08:50:56.622Z,23.20
2018-09-10T08:53:40.263Z,23.00
2018-09-10T08:56:24.938Z,23.00
2018-09-10T08:59:08.458Z,23.20
2018-09-10T09:01:52.076Z,23.30
2018-09-10T09:04:35.652Z,23.30
2018-09-10T09:07:19.240Z,23.10
2018-09-10T09:10:02.851Z,22.80
2018-09-10T09:12:46.417Z,22.50
2018-09-10T09:15:30.869Z,22.20
2018-09-10T09:18:14.461Z,22.10
2018-09-10T09:20:58.058Z,22.00
2018-09-10T09:23:42.614Z,22.00
2018-09-10T09:26:26.180Z,22.10
2018-09-10T09:29:09.818Z,22.20
2018-09-10T09:31:53.426Z,22.40
2018-09-10T09:34:42.632Z,22.60
2018-09-10T09:37:31.488Z,22.60
2018-09-10T09:40:20.527Z,22.90
2018-09-10T09:43:09.785Z,23.60
2018-09-10T09:45:58.881Z,24.20
2018-09-10T09:48:42.479Z,24.70
2018-09-10T09:54:09.394Z,25.50
2018-09-10T09:56:53.124Z,25.20
2018-09-10T09:59:36.699Z,24.90
2018-09-10T10:02:21.073Z,24.60
2018-09-10T10:05:08.348Z,24.30
2018-09-10T10:10:43.366Z,23.70
2018-09-10T10:16:20.793Z,23.50
2018-09-10T10:19:05.615Z,23.50
2018-09-10T10:21:56.206Z,23.60
2018-09-10T10:24:39.713Z,23.70
2018-09-10T10:27:23.375Z,23.80
2018-09-10T10:32:56.552Z,24.90
2018-09-10T10:35:40.246Z,25.00
2018-09-10T10:38:23.892Z,25.70
2018-09-10T10:41:07.507Z,26.70
2018-09-10T10:43:51.110Z,27.60
2018-09-10T10:46:34.824Z,27.60
2018-09-10T10:49:18.417Z,27.40
2018-09-10T10:52:02.081Z,27.80
2018-09-10T10:54:45.729Z,28.60
2018-09-10T10:57:29.322Z,29.30
2018-09-10T11:00:12.938Z,29.90
2018-09-10T11:02:56.604Z,29.90
2018-09-10T11:05:40.233Z,29.60
2018-09-10T11:08:23.867Z,29.60
2018-09-10T11:11:07.543Z,28.90
2018-09-10T11:13:51.229Z,28.90
2018-09-10T11:16:34.904Z,28.50
2018-09-10T11:19:18.497Z,28.50
2018-09-10T11:22:02.108Z,28.40
2018-09-10T11:24:45.817Z,28.60
2018-09-10T11:27:29.556Z,28.50
2018-09-10T11:30:13.192Z,28.30
2018-09-10T11:32:56.797Z,28.20
2018-09-10T11:35:40.466Z,27.70
2018-09-10T11:38:24.070Z,27.70
2018-09-10T11:41:08.298Z,28.00
2018-09-10T11:43:51.958Z,28.20
2018-09-10T11:46:36.249Z,28.20
2018-09-10T11:49:19.828Z,28.20
2018-09-10T11:52:03.411Z,28.00
2018-09-10T11:54:47.033Z,27.50
2018-09-10T11:57:30.658Z,27.50
2018-09-10T12:00:14.305Z,27.00
2018-09-10T12:02:57.926Z,26.90
2018-09-10T12:05:41.688Z,26.80
2018-09-10T12:08:25.351Z,26.80
2018-09-10T12:11:08.961Z,26.90
2018-09-10T12:13:52.602Z,27.40
2018-09-10T12:16:36.215Z,27.40
2018-09-10T12:19:19.834Z,27.60
2018-09-10T12:22:07.361Z,27.90
2018-09-10T12:24:56.122Z,28.10
2018-09-10T12:27:41.906Z,28.30
2018-09-10T12:33:19.974Z,28.30
2018-09-10T12:36:10.270Z,28.20
2018-09-10T12:44:48.413Z,28.00
2018-09-10T12:47:33.363Z,27.90
2018-09-10T12:50:18.641Z,27.70
2018-09-10T12:53:10.091Z,27.60
2018-09-10T12:58:42.263Z,27.50
2018-09-10T13:04:21.277Z,27.00
2018-09-10T13:09:59.490Z,26.80
2018-09-10T13:12:43.118Z,26.70
2018-09-10T13:21:01.515Z,26.40
2018-09-10T13:26:29.711Z,26.20
2018-09-10T13:29:13.299Z,26.20
2018-09-10T13:31:56.921Z,26.20
2018-09-10T13:37:23.815Z,26.20
2018-09-10T13:40:07.422Z,26.30
2018-09-10T13:45:34.370Z,26.50
2018-09-10T13:48:18.055Z,26.70
2018-09-10T13:51:01.697Z,26.80
2018-09-10T13:53:45.317Z,26.80
2018-09-10T13:56:28.966Z,26.70
2018-09-10T13:59:12.539Z,26.60
2018-09-10T14:01:56.205Z,23.50
2018-09-10T14:04:39.827Z,26.40
2018-09-10T14:07:23.611Z,26.30
2018-09-10T14:10:07.246Z,26.10
2018-09-10T14:12:50.882Z,25.90
2018-09-10T14:15:34.517Z,25.90
2018-09-10T14:18:18.199Z,26.00
2018-09-10T14:21:01.816Z,25.90
2018-09-10T14:23:45.459Z,25.90
2018-09-10T14:26:29.176Z,25.90
2018-09-10T14:29:12.818Z,25.90
2018-09-10T14:31:56.543Z,25.80
2018-09-10T14:34:40.429Z,25.70
2018-09-10T14:37:24.028Z,25.70
2018-09-10T14:40:07.628Z,25.70
2018-09-10T14:42:51.294Z,25.70
2018-09-10T14:45:35.244Z,25.70
2018-09-10T14:48:18.845Z,25.70
2018-09-10T14:51:02.583Z,25.60
2018-09-10T14:53:46.157Z,25.60
2018-09-10T14:56:29.856Z,25.40
2018-09-10T14:59:13.465Z,25.20
2018-09-10T15:01:57.099Z,24.90
2018-09-10T15:04:40.681Z,24.70
2018-09-10T15:07:24.331Z,24.60
2018-09-10T15:10:09.140Z,24.60
2018-09-10T15:12:52.820Z,24.60
2018-09-10T15:15:36.445Z,24.70
2018-09-10T15:18:20.144Z,24.70
2018-09-10T15:21:03.680Z,24.70
2018-09-10T15:23:47.380Z,24.70
2018-09-10T15:26:30.986Z,24.60
2018-09-10T15:29:14.753Z,24.50
2018-09-10T15:31:58.364Z,24.50
2018-09-10T15:34:42.070Z,24.40
2018-09-10T15:37:25.678Z,24.30
2018-09-10T15:40:09.344Z,24.20
2018-09-10T15:42:52.934Z,24.20
2018-09-10T15:45:36.693Z,24.10
2018-09-10T15:48:20.295Z,24.10
2018-09-10T15:51:03.934Z,24.10
2018-09-10T15:53:47.506Z,24.10
2018-09-10T15:56:31.143Z,24.10
2018-09-10T15:59:14.786Z,23.90
2018-09-10T16:01:58.494Z,23.90
2018-09-10T16:04:42.316Z,23.80
2018-09-10T16:07:25.990Z,23.80
2018-09-10T16:10:09.641Z,23.80
2018-09-10T16:12:53.874Z,23.70
2018-09-10T16:15:38.056Z,23.80
2018-09-10T16:18:21.952Z,23.80
2018-09-10T16:21:06.937Z,23.80
2018-09-10T16:23:50.525Z,23.80
2018-09-10T16:26:34.202Z,23.70
2018-09-10T16:29:18.555Z,23.60
2018-09-10T16:32:02.126Z,23.50
2018-09-10T16:40:12.534Z,23.30
2018-09-10T16:42:56.172Z,23.30
2018-09-10T16:45:39.782Z,23.30
2018-09-10T16:48:23.534Z,23.20
2018-09-10T16:51:08.037Z,23.30
2018-09-10T16:53:52.345Z,23.20
2018-09-10T16:56:36.058Z,23.20
2018-09-10T16:59:19.835Z,23.20
2018-09-10T17:04:47.617Z,23.00
2018-09-10T17:07:31.253Z,22.90
2018-09-10T17:10:15.187Z,22.80
2018-09-10T17:12:58.831Z,22.80
2018-09-10T17:15:42.737Z,22.70
2018-09-10T17:18:27.210Z,22.70
2018-09-10T17:21:11.351Z,22.60
2018-09-10T17:23:55.077Z,22.50
2018-09-10T17:26:38.874Z,22.50
2018-09-10T17:29:22.606Z,22.40
2018-09-10T17:32:15.049Z,22.40
2018-09-10T17:37:48.631Z,22.30
2018-09-10T17:40:37.810Z,22.20
2018-09-10T17:46:19.971Z,22.10
2018-09-10T17:49:07.976Z,22.00
2018-09-10T17:54:45.273Z,21.90
2018-09-10T18:00:25.179Z,21.80
2018-09-10T18:05:56.266Z,21.80
2018-09-10T18:08:39.924Z,21.70
2018-09-10T18:11:23.566Z,21.70
2018-09-10T18:14:07.206Z,21.60
2018-09-10T18:16:50.796Z,21.60
2018-09-10T18:19:34.431Z,21.50
2018-09-10T18:22:18.685Z,21.50
2018-09-10T18:25:02.348Z,21.50
2018-09-10T18:33:19.786Z,21.30
2018-09-10T18:36:03.394Z,21.30
2018-09-10T18:38:47.050Z,21.30
2018-09-10T18:41:30.641Z,21.30
2018-09-10T18:44:14.290Z,21.30
2018-09-10T18:46:57.887Z,21.20
2018-09-10T18:49:41.453Z,21.20
2018-09-10T18:52:25.104Z,21.20
2018-09-10T18:55:08.696Z,21.20
2018-09-10T18:57:52.812Z,21.20
2018-09-10T19:00:36.508Z,21.10
2018-09-10T19:03:20.249Z,21.10
2018-09-10T19:06:03.885Z,21.10
2018-09-10T19:08:47.544Z,21.10
2018-09-10T19:11:31.233Z,21.00
2018-09-10T19:14:14.813Z,20.90
2018-09-10T19:16:58.461Z,20.90
2018-09-10T19:19:42.093Z,20.80
2018-09-10T19:22:25.777Z,20.80
2018-09-10T19:25:09.356Z,20.70
2018-09-10T19:27:52.960Z,20.70
2018-09-10T19:30:36.612Z,20.70
2018-09-10T19:33:21.124Z,20.70
2018-09-10T19:36:04.762Z,20.70
2018-09-10T19:38:48.378Z,20.70
2018-09-10T19:41:32.408Z,20.70
2018-09-10T19:44:16.054Z,20.70
2018-09-10T19:47:00.805Z,20.60
2018-09-10T19:49:44.438Z,20.60
2018-09-10T19:52:28.031Z,20.60
2018-09-10T19:55:11.610Z,20.60
2018-09-10T19:57:55.191Z,20.60
2018-09-10T20:00:38.807Z,20.50
2018-09-10T20:03:22.419Z,20.50
2018-09-10T20:06:06.244Z,20.50
2018-09-10T20:08:49.831Z,20.40
2018-09-10T20:11:34.406Z,20.40
2018-09-10T20:14:18.014Z,20.40
2018-09-10T20:17:01.582Z,20.40
2018-09-10T20:19:45.172Z,20.40
2018-09-10T20:22:28.852Z,20.40
2018-09-10T20:25:12.441Z,20.30
2018-09-10T20:27:56.062Z,20.30
2018-09-10T20:30:39.750Z,20.30
2018-09-10T20:33:24.196Z,20.30
2018-09-10T20:36:07.852Z,20.30
2018-09-10T20:38:51.429Z,20.30
2018-09-10T20:41:35.052Z,20.30
2018-09-10T20:44:18.766Z,20.20
2018-09-10T20:47:02.379Z,20.20
2018-09-10T20:49:46.216Z,20.20
2018-09-10T20:52:29.880Z,20.20
2018-09-10T20:55:13.539Z,20.20
2018-09-10T20:57:57.178Z,20.20
2018-09-10T21:00:41.771Z,20.20
2018-09-10T21:03:25.387Z,20.10
2018-09-10T21:06:09.056Z,20.10
2018-09-10T21:08:52.662Z,20.10
2018-09-10T21:11:36.304Z,20.10
2018-09-10T21:14:19.902Z,20.10
2018-09-10T21:17:03.642Z,20.10
2018-09-10T21:19:47.268Z,20.00
2018-09-10T21:22:30.908Z,20.00
2018-09-10T21:25:14.516Z,20.00
2018-09-10T21:27:58.097Z,20.00
2018-09-10T21:30:41.709Z,19.90
2018-09-10T21:33:25.430Z,19.90
2018-09-10T21:36:09.089Z,19.90
2018-09-10T21:38:52.724Z,19.90
2018-09-10T21:41:36.547Z,19.90
2018-09-10T21:44:20.178Z,19.90
2018-09-10T21:47:03.796Z,19.90
2018-09-10T21:49:47.478Z,19.90
2018-09-10T21:52:31.113Z,19.90
2018-09-10T21:55:14.755Z,19.90
2018-09-10T21:57:58.391Z,19.90
2018-09-10T22:00:48.150Z,19.80
2018-09-10T22:03:31.790Z,19.80
2018-09-10T22:06:15.417Z,19.80
2018-09-10T22:08:59.099Z,19.80
2018-09-10T22:11:48.102Z,19.80
2018-09-10T22:14:32.622Z,19.70
2018-09-10T22:17:16.242Z,19.70
2018-09-10T22:19:59.879Z,19.70
2018-09-10T22:22:43.462Z,19.70
2018-09-10T22:25:27.045Z,19.70
2018-09-10T22:28:10.669Z,19.60
2018-09-10T22:30:54.333Z,19.60
2018-09-10T22:33:37.984Z,19.60
2018-09-10T22:36:21.601Z,19.50
2018-09-10T22:39:08.130Z,19.50
2018-09-10T22:41:51.725Z,19.50
2018-09-10T22:44:35.990Z,19.50
2018-09-10T22:47:19.621Z,19.50
2018-09-10T22:50:03.270Z,19.50
2018-09-10T22:52:46.888Z,19.50
2018-09-10T22:55:30.521Z,19.50
2018-09-10T22:58:14.120Z,19.50
2018-09-10T23:00:57.714Z,19.40
2018-09-10T23:03:41.403Z,19.40
2018-09-10T23:06:25.036Z,19.40
2018-09-10T23:09:09.406Z,19.40
2018-09-10T23:11:53.058Z,19.30
2018-09-10T23:14:36.703Z,19.30
2018-09-10T23:17:20.354Z,19.20
2018-09-10T23:20:03.998Z,19.20
2018-09-10T23:22:47.621Z,19.20
2018-09-10T23:25:31.276Z,19.20
2018-09-10T23:28:14.946Z,19.20
2018-09-10T23:30:58.544Z,19.30
2018-09-10T23:33:42.130Z,19.30
2018-09-10T23:36:25.795Z,19.30
2018-09-10T23:39:09.803Z,19.30
2018-09-10T23:41:53.406Z,19.30
2018-09-10T23:44:37.005Z,19.30
2018-09-10T23:47:20.637Z,19.30
2018-09-10T23:50:04.370Z,19.30
2018-09-10T23:52:47.985Z,19.30
2018-09-10T23:55:31.664Z,19.30
2018-09-10T23:58:15.317Z,19.20
